Time;durP1;ratioP1;P1;durP2;ratioP2;P2;SDS_P1;SDS_P2;PMS_P1;PMS_P2;Temp;Humidity;BMP_temperature;BMP_pressure;BME280_temperature;BME280_humidity;BME280_pressure;Samples;Min_cycle;Max_cycle;Signal;HPM_P1;HPM_P2
2021/03/20 00:00:39;;;;;;;5.03;4.60;;;;;;;-1.79;92.95;98716.13;5005766;28;20238;-70
2021/03/20 00:03:06;;;;;;;5.53;5.03;;;;;;;-1.69;90.95;98710.53;5010283;28;20228;-71
2021/03/20 00:05:34;;;;;;;4.87;4.47;;;;;;;-1.74;91.21;98713.34;5006795;28;20217;-70
2021/03/20 00:08:02;;;;;;;4.93;4.53;;;;;;;-1.64;90.27;98709.41;5005724;28;20216;-71
2021/03/20 00:10:29;;;;;;;4.63;4.33;;;;;;;-1.63;90.14;98705.88;5005298;28;20334;-71
2021/03/20 00:12:57;;;;;;;4.67;4.27;;;;;;;-1.58;88.25;98707.44;5007325;28;20209;-70
2021/03/20 00:15:26;;;;;;;4.43;4.03;;;;;;;-1.70;85.91;98709.69;5003062;28;20229;-71
2021/03/20 00:17:53;;;;;;;3.63;3.40;;;;;;;-1.69;85.43;98708.78;5006659;28;20580;-70
2021/03/20 00:20:24;;;;;;;4.80;3.87;;;;;;;-1.66;86.92;98707.81;5005520;28;20200;-71
2021/03/20 00:22:51;;;;;;;4.10;3.70;;;;;;;-1.68;86.20;98713.06;5007342;28;20708;-70
2021/03/20 00:25:19;;;;;;;4.20;3.90;;;;;;;-1.73;87.74;98706.38;5002666;28;20479;-68
2021/03/20 00:27:46;;;;;;;4.60;4.30;;;;;;;-1.78;86.47;98709.19;5003903;28;20212;-70
2021/03/20 00:30:14;;;;;;;3.90;3.63;;;;;;;-1.82;83.87;98711.06;5005322;28;20696;-70
2021/03/20 00:32:41;;;;;;;4.10;3.87;;;;;;;-1.76;85.14;98710.78;5004040;28;20216;-70
2021/03/20 00:35:11;;;;;;;4.60;4.20;;;;;;;-1.73;84.63;98708.97;5007998;28;20228;-71
2021/03/20 00:37:39;;;;;;;3.93;3.63;;;;;;;-1.85;82.12;98710.38;5002292;28;20414;-70
2021/03/20 00:40:08;;;;;;;4.50;4.20;;;;;;;-1.94;81.73;98704.66;5000598;28;20212;-71
2021/03/20 00:42:35;;;;;;;3.60;3.40;;;;;;;-1.92;79.79;98704.59;5004196;28;20229;-70
2021/03/20 00:45:04;;;;;;;3.90;3.63;;;;;;;-2.11;79.39;98708.00;5006079;28;20640;-70
2021/03/20 00:47:31;;;;;;;3.80;3.50;;;;;;;-2.02;78.58;98713.72;5003107;28;20217;-69
2021/03/20 00:49:59;;;;;;;4.00;3.70;;;;;;;-2.10;78.90;98712.28;5009476;28;20267;-70
2021/03/20 00:52:26;;;;;;;4.47;4.07;;;;;;;-2.22;78.91;98718.00;5005365;28;20212;-71
2021/03/20 00:54:53;;;;;;;4.00;3.70;;;;;;;-2.21;79.59;98724.88;5002384;28;20232;-70
2021/03/20 00:57:20;;;;;;;3.63;3.43;;;;;;;-2.25;79.11;98719.00;5007553;28;20490;-69
2021/03/20 00:59:48;;;;;;;3.87;3.57;;;;;;;-2.31;81.02;98721.00;5008310;28;20631;-70
2021/03/20 01:02:15;;;;;;;3.77;3.47;;;;;;;-2.30;79.89;98717.50;5000094;28;20713;-70
2021/03/20 01:04:43;;;;;;;3.83;3.53;;;;;;;-2.44;81.92;98708.53;5003623;28;20622;-70
2021/03/20 01:07:10;;;;;;;4.00;3.60;;;;;;;-2.47;82.84;98706.06;5003984;28;20213;-71
2021/03/20 01:09:37;;;;;;;4.10;3.80;;;;;;;-2.53;83.11;98698.53;5002106;28;20209;-70
2021/03/20 01:12:05;;;;;;;4.47;4.00;;;;;;;-2.51;82.75;98701.91;5005970;28;20392;-70
2021/03/20 01:14:32;;;;;;;4.30;4.00;;;;;;;-2.51;82.13;98707.09;5004605;28;20236;-71
2021/03/20 01:16:59;;;;;;;4.00;3.70;;;;;;;-2.60;83.21;98691.91;5002546;28;20213;-68
2021/03/20 01:19:26;;;;;;;3.97;3.60;;;;;;;-2.55;82.73;98702.94;5007199;28;20204;-71
2021/03/20 01:21:54;;;;;;;4.30;4.00;;;;;;;-2.66;82.36;98700.78;5002558;28;20215;-70
2021/03/20 01:24:21;;;;;;;3.83;3.53;;;;;;;-2.64;81.86;98705.00;5006879;28;20234;-69
2021/03/20 01:26:48;;;;;;;4.13;3.80;;;;;;;-2.76;82.04;98718.50;5005295;28;20224;-71
2021/03/20 01:29:15;;;;;;;4.13;3.83;;;;;;;-2.73;82.38;98726.16;4999798;28;20205;-71
2021/03/20 01:31:47;;;;;;;3.93;3.73;;;;;;;-2.81;82.22;98730.81;5005297;28;20209;-67
2021/03/20 01:34:14;;;;;;;3.80;3.60;;;;;;;-2.80;79.90;98722.94;4997885;28;20239;-71
2021/03/20 01:36:41;;;;;;;4.03;3.63;;;;;;;-2.79;79.48;98714.25;5006615;28;20204;-70
2021/03/20 01:39:09;;;;;;;3.97;3.67;;;;;;;-2.83;78.78;98715.28;5012171;28;20227;-71
2021/03/20 01:41:36;;;;;;;4.17;3.87;;;;;;;-2.85;78.58;98726.63;5008835;28;20213;-69
2021/03/20 01:44:04;;;;;;;3.87;3.67;;;;;;;-2.91;78.37;98720.78;5012659;28;20359;-69
2021/03/20 01:46:39;;;;;;;3.67;3.37;;;;;;;-2.88;77.35;98730.22;5002956;28;20463;-69
2021/03/20 01:49:15;;;;;;;3.93;3.53;;;;;;;-2.92;77.85;98724.28;5015349;28;20721;-69
2021/03/20 01:51:42;;;;;;;3.77;3.53;;;;;;;-2.97;77.33;98727.97;4994415;28;20214;-70
2021/03/20 01:54:11;;;;;;;3.87;3.60;;;;;;;-2.96;76.73;98725.31;5012925;28;20628;-70
2021/03/20 01:56:41;;;;;;;3.63;3.40;;;;;;;-3.07;76.75;98720.53;5006517;28;20447;-70
2021/03/20 01:59:10;;;;;;;3.73;3.43;;;;;;;-3.06;77.27;98716.22;4998314;28;20204;-71
2021/03/20 02:01:38;;;;;;;3.93;3.63;;;;;;;-3.12;77.49;98713.88;5005632;28;20205;-70
2021/03/20 02:04:06;;;;;;;3.77;3.47;;;;;;;-3.11;76.60;98724.16;5011875;28;20731;-70
2021/03/20 02:06:33;;;;;;;3.90;3.70;;;;;;;-3.13;77.10;98717.38;5005973;28;20204;-71
2021/03/20 02:09:08;;;;;;;4.23;3.93;;;;;;;-3.18;75.78;98722.72;5016043;28;20208;-70
2021/03/20 02:11:42;;;;;;;4.33;3.87;;;;;;;-3.19;76.29;98734.00;5008624;28;21087;-68
2021/03/20 02:14:18;;;;;;;3.70;3.40;;;;;;;-3.25;75.95;98740.25;4995158;28;20901;-70
2021/03/20 02:17:03;;;;;;;4.03;3.73;;;;;;;-3.29;76.56;98733.50;4997487;28;20498;-69
2021/03/20 02:20:01;;;;;;;5.83;3.97;;;;;;;-3.26;75.05;98741.16;5003385;28;20300;-70
2021/03/20 02:22:45;;;;;;;4.40;3.47;;;;;;;-3.26;74.60;98750.69;4996939;28;20224;-70
2021/03/20 02:25:39;;;;;;;4.53;4.23;;;;;;;-3.40;75.85;98752.06;4998105;28;20504;-70
2021/03/20 02:28:43;;;;;;;4.20;3.90;;;;;;;-3.33;76.48;98751.84;5003460;28;20463;-70
2021/03/20 02:31:30;;;;;;;5.00;4.30;;;;;;;-3.31;76.73;98750.03;4973500;28;20207;-70
2021/03/20 02:34:07;;;;;;;5.23;3.80;;;;;;;-3.18;74.97;98758.19;5003269;28;20472;-69
2021/03/20 02:36:37;;;;;;;4.27;3.97;;;;;;;-3.27;75.43;98755.03;5006561;28;20972;-68
2021/03/20 02:39:09;;;;;;;4.00;3.70;;;;;;;-3.25;75.04;98762.75;4997017;28;20211;-69
2021/03/20 02:41:44;;;;;;;4.50;4.20;;;;;;;-3.28;74.90;98753.34;5003735;28;20621;-70
2021/03/20 02:44:15;;;;;;;4.20;3.90;;;;;;;-3.23;74.87;98759.19;5010396;28;20600;-70
2021/03/20 02:46:50;;;;;;;4.20;3.90;;;;;;;-3.14;75.14;98758.00;4993015;28;20712;-71
2021/03/20 02:49:24;;;;;;;3.93;3.70;;;;;;;-3.24;75.77;98756.66;5013668;28;20208;-70
2021/03/20 02:51:54;;;;;;;4.23;3.93;;;;;;;-3.26;75.56;98761.91;5000620;28;20205;-70
2021/03/20 02:54:24;;;;;;;3.77;3.57;;;;;;;-3.28;75.00;98753.34;5002542;28;20470;-68
2021/03/20 02:56:55;;;;;;;4.30;3.90;;;;;;;-3.40;75.83;98757.25;5007242;28;20304;-70
2021/03/20 02:59:25;;;;;;;4.50;4.17;;;;;;;-3.33;74.37;98772.56;4999317;28;20211;-70
2021/03/20 03:01:53;;;;;;;4.57;4.20;;;;;;;-3.38;74.09;98762.38;5009045;28;20212;-71
2021/03/20 03:04:23;;;;;;;4.67;4.37;;;;;;;-3.35;74.62;98768.28;5006754;28;20232;-69
2021/03/20 03:06:56;;;;;;;3.77;3.57;;;;;;;-3.45;74.95;98771.28;4998004;28;20490;-70
2021/03/20 03:09:26;;;;;;;4.63;4.23;;;;;;;-3.52;75.55;98766.31;5007438;28;20627;-71
2021/03/20 03:11:56;;;;;;;4.47;4.07;;;;;;;-3.51;75.16;98761.97;5005159;28;20436;-70
2021/03/20 03:14:26;;;;;;;5.10;4.70;;;;;;;-3.56;74.67;98766.47;5006586;28;20267;-70
2021/03/20 03:16:57;;;;;;;4.20;3.80;;;;;;;-3.58;75.28;98765.69;4995996;28;20260;-70
2021/03/20 03:19:30;;;;;;;4.63;4.23;;;;;;;-3.65;75.99;98749.50;5001048;28;20494;-70
2021/03/20 03:21:59;;;;;;;4.37;4.17;;;;;;;-3.67;76.05;98774.63;5001738;28;20501;-70
2021/03/20 03:24:28;;;;;;;4.03;3.80;;;;;;;-3.75;77.15;98761.13;5002745;28;20717;-71
2021/03/20 03:27:00;;;;;;;5.20;4.80;;;;;;;-3.76;77.73;98762.88;5001237;28;20443;-70
2021/03/20 03:29:29;;;;;;;4.17;3.87;;;;;;;-3.72;77.65;98755.81;5004382;28;20555;-70
2021/03/20 03:32:03;;;;;;;4.63;4.23;;;;;;;-3.81;78.55;98757.00;5001398;28;20211;-69
2021/03/20 03:34:34;;;;;;;5.57;5.07;;;;;;;-3.93;78.84;98755.72;5005625;28;20682;-71
2021/03/20 03:37:06;;;;;;;4.30;4.00;;;;;;;-3.95;79.75;98763.50;5006197;28;20523;-68
2021/03/20 03:39:38;;;;;;;4.20;3.90;;;;;;;-3.99;79.73;98755.91;5014062;28;20827;-70
2021/03/20 03:42:05;;;;;;;4.70;4.40;;;;;;;-4.01;79.48;98758.56;5012214;28;20447;-71
2021/03/20 03:44:32;;;;;;;5.83;4.60;;;;;;;-4.05;79.59;98758.69;5002888;28;21058;-70
2021/03/20 03:46:59;;;;;;;4.40;4.20;;;;;;;-4.07;79.36;98759.59;5005427;28;20439;-71
2021/03/20 03:49:26;;;;;;;4.63;4.33;;;;;;;-4.05;78.71;98763.88;5009521;28;20208;-69
2021/03/20 03:51:54;;;;;;;5.23;4.73;;;;;;;-4.11;79.01;98762.38;5002338;28;21016;-69
2021/03/20 03:54:25;;;;;;;4.40;4.10;;;;;;;-4.14;78.08;98763.31;5006056;28;20541;-69
2021/03/20 03:57:02;;;;;;;5.23;4.73;;;;;;;-4.16;78.64;98764.28;5002010;28;20982;-70
2021/03/20 03:59:36;;;;;;;5.17;4.73;;;;;;;-4.21;78.58;98765.25;4998943;28;20450;-70
2021/03/20 04:02:13;;;;;;;5.23;4.83;;;;;;;-4.23;78.99;98767.03;5008787;28;20502;-70
2021/03/20 04:04:51;;;;;;;5.93;5.43;;;;;;;-4.28;79.05;98768.13;5001928;28;20541;-69
2021/03/20 04:07:28;;;;;;;4.77;4.20;;;;;;;-4.28;78.52;98775.88;5007312;28;20455;-69
2021/03/20 04:10:04;;;;;;;5.43;4.93;;;;;;;-4.32;79.74;98782.88;5006371;28;20440;-70
2021/03/20 04:12:35;;;;;;;5.33;4.93;;;;;;;-4.33;79.56;98781.19;5004428;28;20454;-70
2021/03/20 04:15:06;;;;;;;4.87;4.37;;;;;;;-4.37;79.88;98783.03;5008404;28;20784;-70
2021/03/20 04:17:37;;;;;;;4.73;4.33;;;;;;;-4.38;79.28;98781.34;5007355;28;20463;-69
2021/03/20 04:20:14;;;;;;;4.53;4.23;;;;;;;-4.39;79.21;98784.00;5016668;28;20597;-69
2021/03/20 04:22:46;;;;;;;5.37;4.50;;;;;;;-4.46;79.79;98788.50;5006224;28;20487;-69
2021/03/20 04:25:19;;;;;;;7.10;4.63;;;;;;;-4.43;79.28;98785.81;5004312;28;20602;-70
2021/03/20 04:27:51;;;;;;;5.17;4.70;;;;;;;-4.49;78.82;98790.38;5004423;28;20228;-67
2021/03/20 04:30:23;;;;;;;4.87;4.47;;;;;;;-4.50;79.28;98794.69;4999066;28;20836;-69
2021/03/20 04:32:54;;;;;;;4.60;4.30;;;;;;;-4.53;78.64;98794.78;5002764;28;21681;-70
2021/03/20 04:35:23;;;;;;;4.83;4.40;;;;;;;-4.59;79.45;98795.00;5008736;28;20473;-70
2021/03/20 04:37:53;;;;;;;4.73;4.23;;;;;;;-4.61;78.85;98789.03;5000922;28;20448;-70
2021/03/20 04:40:28;;;;;;;4.93;4.47;;;;;;;-4.60;78.13;98801.06;5003930;28;20440;-68
2021/03/20 04:42:56;;;;;;;4.23;3.87;;;;;;;-4.58;78.87;98796.69;5004787;28;20537;-69
2021/03/20 04:45:29;;;;;;;8.17;5.47;;;;;;;-4.56;78.97;98798.31;5005135;28;20469;-67
2021/03/20 04:47:58;;;;;;;6.47;4.47;;;;;;;-4.52;79.05;98796.47;4994888;28;20463;-66
2021/03/20 04:50:27;;;;;;;3.70;3.40;;;;;;;-4.54;77.92;98795.69;5003696;28;20447;-65
2021/03/20 04:52:57;;;;;;;4.83;4.00;;;;;;;-4.57;78.50;98800.97;5001467;28;20452;-65
2021/03/20 04:55:24;;;;;;;4.10;3.80;;;;;;;-4.60;79.01;98807.06;5002452;28;20551;-68
2021/03/20 04:57:54;;;;;;;4.50;4.10;;;;;;;-4.59;78.54;98806.16;5006283;28;20448;-67
2021/03/20 05:00:25;;;;;;;4.23;3.93;;;;;;;-4.59;78.33;98803.59;5004873;28;20452;-68
2021/03/20 05:02:54;;;;;;;4.63;3.77;;;;;;;-4.59;78.04;98802.75;5005144;28;20624;-68
2021/03/20 05:05:26;;;;;;;4.43;4.13;;;;;;;-4.68;77.88;98798.72;5003316;28;20459;-68
2021/03/20 05:07:53;;;;;;;4.63;4.30;;;;;;;-4.63;78.53;98802.00;5007761;28;20451;-68
2021/03/20 05:10:29;;;;;;;4.77;4.37;;;;;;;-4.70;78.43;98806.53;5008643;28;20443;-70
2021/03/20 05:12:58;;;;;;;5.53;3.87;;;;;;;-4.81;79.73;98801.69;5006519;28;21020;-71
2021/03/20 05:15:28;;;;;;;4.40;4.10;;;;;;;-4.71;78.33;98802.25;5008028;28;21182;-71
2021/03/20 05:17:55;;;;;;;4.87;4.43;;;;;;;-4.70;78.32;98816.88;5003149;28;20447;-70
2021/03/20 05:20:22;;;;;;;4.13;3.83;;;;;;;-4.62;78.62;98815.78;5010771;28;20449;-72
2021/03/20 05:22:50;;;;;;;4.80;4.43;;;;;;;-4.75;79.15;98810.97;5006143;28;20483;-70
2021/03/20 05:25:18;;;;;;;4.17;3.87;;;;;;;-4.73;78.95;98819.56;5011317;28;20474;-72
2021/03/20 05:27:46;;;;;;;3.87;3.60;;;;;;;-4.69;78.64;98821.16;5009580;28;20842;-70
2021/03/20 05:30:15;;;;;;;4.63;4.33;;;;;;;-4.92;79.60;98827.03;5005461;28;20528;-70
2021/03/20 05:32:42;;;;;;;4.27;3.97;;;;;;;-4.76;78.83;98840.31;5007103;28;20451;-72
2021/03/20 05:35:15;;;;;;;4.80;4.17;;;;;;;-4.66;79.07;98843.47;5004161;28;20562;-70
2021/03/20 05:37:42;;;;;;;4.37;3.97;;;;;;;-4.60;77.37;98850.22;4989229;28;20440;-69
2021/03/20 05:40:18;;;;;;;4.40;4.03;;;;;;;-4.69;78.36;98847.03;5004266;28;20495;-71
2021/03/20 05:43:22;;;;;;;4.60;4.20;;;;;;;-4.65;78.03;98850.34;5002462;28;20491;-69
2021/03/20 05:45:57;;;;;;;4.20;3.80;;;;;;;-4.68;77.41;98853.88;5002464;28;20568;-70
2021/03/20 05:48:29;;;;;;;4.20;3.87;;;;;;;-4.78;77.69;98860.22;5002983;28;20584;-70
2021/03/20 05:51:34;;;;;;;5.20;4.57;;;;;;;-4.70;77.88;98858.25;5004946;28;20987;-70
2021/03/20 05:54:19;;;;;;;4.67;4.20;;;;;;;-4.66;77.03;98859.88;5000548;28;20468;-69
2021/03/20 05:56:55;;;;;;;4.00;3.70;;;;;;;-4.72;77.21;98862.63;5002725;28;20520;-71
2021/03/20 05:59:32;;;;;;;4.00;3.60;;;;;;;-4.70;76.53;98872.91;5002821;28;20451;-72
2021/03/20 06:02:16;;;;;;;3.93;3.60;;;;;;;-4.70;75.73;98878.97;5005288;28;20984;-71
2021/03/20 06:04:45;;;;;;;7.90;4.13;;;;;;;-4.75;76.28;98878.22;4998966;28;20908;-70
2021/03/20 06:07:51;;;;;;;4.37;3.90;;;;;;;-4.66;76.09;98890.91;5002633;28;20441;-71
2021/03/20 06:10:30;;;;;;;3.90;3.70;;;;;;;-4.63;75.69;98894.28;5002568;28;20444;-70
2021/03/20 06:13:15;;;;;;;4.20;3.90;;;;;;;-4.62;75.96;98883.03;5001293;28;20479;-70
2021/03/20 06:15:59;;;;;;;4.37;4.00;;;;;;;-4.56;76.17;98895.78;5004055;28;20442;-70
2021/03/20 06:19:23;;;;;;;5.07;3.97;;;;;;;-4.50;74.70;98890.41;4995056;28;20448;-72
2021/03/20 06:22:18;;;;;;;4.80;4.40;;;;;;;-4.37;74.87;98901.25;5004078;28;21063;-71
2021/03/20 06:25:15;;;;;;;4.50;4.13;;;;;;;-4.45;74.49;98898.06;5000137;28;20892;-71
2021/03/20 06:27:46;;;;;;;4.07;3.67;;;;;;;-4.34;73.77;98887.38;5003141;28;20467;-73
2021/03/20 06:30:29;;;;;;;4.77;4.37;;;;;;;-4.22;72.95;98884.38;5009583;28;20443;-71
2021/03/20 06:33:08;;;;;;;4.40;4.00;;;;;;;-4.24;73.25;98891.38;5003437;28;20213;-68
2021/03/20 06:35:39;;;;;;;4.63;4.27;;;;;;;-4.13;73.10;98888.44;4999851;28;20452;-68
2021/03/20 06:38:10;;;;;;;7.67;4.77;;;;;;;-4.00;72.42;98884.53;5000557;28;20905;-68
2021/03/20 06:40:48;;;;;;;6.13;4.87;;;;;;;-3.99;70.89;98885.38;5002847;28;20789;-66
2021/03/20 06:43:18;;;;;;;4.20;3.87;;;;;;;-4.02;71.26;98904.47;5001953;28;20479;-67
2021/03/20 06:45:48;;;;;;;4.43;4.03;;;;;;;-3.92;71.27;98897.25;5000507;28;20451;-70
2021/03/20 06:48:17;;;;;;;4.30;4.00;;;;;;;-3.86;71.05;98901.34;5006386;28;20860;-68
2021/03/20 06:50:46;;;;;;;4.43;4.07;;;;;;;-4.03;71.14;98909.66;5005209;28;20468;-70
2021/03/20 06:53:16;;;;;;;5.43;4.40;;;;;;;-3.94;70.83;98914.56;5001543;28;21006;-68
2021/03/20 06:55:44;;;;;;;4.30;3.60;;;;;;;-3.79;69.90;98916.66;4999843;28;20447;-68
2021/03/20 06:58:23;;;;;;;5.60;4.97;;;;;;;-3.89;70.11;98917.00;5003394;28;20962;-69
2021/03/20 07:00:50;;;;;;;4.63;3.93;;;;;;;-3.99;70.97;98916.44;4999105;28;20454;-69
2021/03/20 07:03:43;;;;;;;3.97;3.50;;;;;;;-3.89;70.12;98914.41;5001851;28;20224;-69
2021/03/20 07:06:13;;;;;;;4.33;3.90;;;;;;;-3.93;70.77;98924.03;4986848;28;20830;-68
2021/03/20 07:08:46;;;;;;;4.10;3.80;;;;;;;-3.82;70.73;98918.50;5002090;28;20451;-69
2021/03/20 07:11:21;;;;;;;4.00;3.17;;;;;;;-3.87;70.20;98921.25;5008580;28;20447;-70
2021/03/20 07:14:10;;;;;;;3.57;3.33;;;;;;;-3.91;70.19;98924.84;5005193;28;20467;-70
2021/03/20 07:16:52;;;;;;;3.60;3.40;;;;;;;-3.71;70.19;98926.78;5002163;28;20429;-71
2021/03/20 07:19:21;;;;;;;4.07;3.83;;;;;;;-3.82;69.28;98921.94;5003951;28;20444;-71
2021/03/20 07:22:04;;;;;;;4.10;3.80;;;;;;;-3.57;69.26;98939.25;5003790;28;20455;-72
2021/03/20 07:24:33;;;;;;;3.77;3.43;;;;;;;-3.56;68.59;98930.59;5001689;28;20479;-69
2021/03/20 07:27:03;;;;;;;4.77;4.20;;;;;;;-3.36;68.61;98945.47;5009437;28;20384;-68
2021/03/20 07:29:42;;;;;;;4.10;3.63;;;;;;;-3.23;67.87;98943.25;5003610;28;21030;-70
2021/03/20 07:32:13;;;;;;;4.47;3.57;;;;;;;-3.30;66.80;98946.16;5002230;28;20459;-70
2021/03/20 07:34:41;;;;;;;4.20;3.80;;;;;;;-3.26;67.51;98940.78;5001321;28;20723;-70
2021/03/20 07:37:14;;;;;;;3.40;3.20;;;;;;;-3.21;65.56;98951.88;5004654;28;20439;-69
2021/03/20 07:39:44;;;;;;;4.43;4.03;;;;;;;-3.09;65.65;98958.34;5001776;28;20833;-71
2021/03/20 07:42:33;;;;;;;5.53;3.57;;;;;;;-3.22;64.99;98957.09;5004167;28;20220;-71
2021/03/20 07:45:02;;;;;;;3.50;3.20;;;;;;;-3.28;67.38;98962.50;5001963;28;20492;-68
2021/03/20 07:47:31;;;;;;;4.03;3.73;;;;;;;-3.02;65.96;98958.97;5004278;28;20443;-70
2021/03/20 07:50:25;;;;;;;3.90;3.70;;;;;;;-2.79;64.61;98967.69;5003791;28;20217;-70
2021/03/20 07:53:11;;;;;;;4.83;3.87;;;;;;;-2.86;64.42;98961.88;5009912;28;20209;-71
2021/03/20 07:55:57;;;;;;;3.57;3.17;;;;;;;-2.86;62.82;98959.28;5004437;28;20212;-71
2021/03/20 07:58:28;;;;;;;3.97;3.67;;;;;;;-3.07;63.11;98961.72;5007149;28;20447;-71
2021/03/20 08:00:58;;;;;;;6.20;3.30;;;;;;;-2.85;62.53;98967.91;5004242;28;20197;-71
2021/03/20 08:03:27;;;;;;;4.00;3.60;;;;;;;-2.73;62.84;98967.47;5011376;28;20546;-69
2021/03/20 08:06:10;;;;;;;4.10;3.70;;;;;;;-2.69;61.67;98975.97;5007492;28;20311;-70
2021/03/20 08:08:38;;;;;;;3.80;3.50;;;;;;;-2.86;62.56;98976.56;5011515;28;20212;-70
2021/03/20 08:11:06;;;;;;;3.83;3.53;;;;;;;-2.79;62.73;98973.72;5007010;28;20224;-72
2021/03/20 08:13:42;;;;;;;4.33;4.03;;;;;;;-2.83;62.39;98974.72;5006651;28;20583;-71
2021/03/20 08:16:09;;;;;;;7.03;4.47;;;;;;;-2.66;63.19;98981.91;5009430;28;20224;-72
2021/03/20 08:18:38;;;;;;;5.47;4.37;;;;;;;-2.41;60.77;98982.75;5007166;28;20699;-69
2021/03/20 08:21:46;;;;;;;3.90;3.60;;;;;;;-2.47;60.34;98983.81;5010945;28;20212;-68
2021/03/20 08:24:26;;;;;;;4.47;3.30;;;;;;;-2.22;59.13;98981.16;5012185;28;20479;-71
2021/03/20 08:27:01;;;;;;;3.93;3.60;;;;;;;-2.29;58.88;98982.25;5008595;28;20868;-69
2021/03/20 08:29:58;;;;;;;4.77;3.30;;;;;;;-2.39;58.09;98986.97;5010409;28;20207;-70
2021/03/20 08:32:40;;;;;;;3.83;3.53;;;;;;;-2.41;58.34;98993.97;4977098;28;20215;-69
2021/03/20 08:35:15;;;;;;;3.60;3.30;;;;;;;-2.14;58.66;98987.78;5008662;28;20712;-71
2021/03/20 08:37:53;;;;;;;5.27;3.20;;;;;;;-1.72;59.10;98988.75;5015135;28;20452;-68
2021/03/20 08:40:33;;;;;;;3.70;3.40;;;;;;;-1.55;55.99;98977.66;5008130;28;20208;-70
2021/03/20 08:43:22;;;;;;;3.30;3.10;;;;;;;-1.78;56.46;98982.06;5009943;28;20212;-68
2021/03/20 08:45:55;;;;;;;3.40;2.93;;;;;;;-1.62;56.40;98990.09;5003573;28;20208;-70
2021/03/20 08:48:33;;;;;;;6.27;3.57;;;;;;;-1.70;55.64;98989.56;5009775;28;20222;-70
2021/03/20 08:51:14;;;;;;;6.27;4.90;;;;;;;-1.50;56.15;98980.94;5007146;28;20444;-70
2021/03/20 08:53:50;;;;;;;4.03;3.83;;;;;;;-1.29;55.43;98984.41;5001504;28;20225;-71
2021/03/20 08:56:41;;;;;;;3.53;3.20;;;;;;;-0.85;53.32;98982.53;5006490;28;20196;-70
2021/03/20 08:59:11;;;;;;;6.33;2.93;;;;;;;-0.89;52.57;98976.63;5007451;28;20208;-68
2021/03/20 09:01:40;;;;;;;3.27;3.07;;;;;;;-0.97;54.99;98982.16;5005178;28;20202;-69
2021/03/20 09:04:10;;;;;;;3.53;3.33;;;;;;;-1.26;55.76;98984.28;5004514;28;20631;-69
2021/03/20 09:06:40;;;;;;;3.70;3.50;;;;;;;-1.02;57.31;98984.13;5009660;28;20208;-72
2021/03/20 09:09:13;;;;;;;3.43;3.20;;;;;;;-0.77;55.58;98983.88;5004820;28;20216;-69
2021/03/20 09:11:46;;;;;;;3.83;3.03;;;;;;;-0.60;55.03;98977.09;4992858;28;20210;-69
2021/03/20 09:14:16;;;;;;;3.20;3.10;;;;;;;-0.46;53.10;98979.06;5003332;28;20228;-70
2021/03/20 09:16:46;;;;;;;3.00;2.80;;;;;;;-0.19;51.75;98976.09;5009985;28;20209;-69
2021/03/20 09:19:22;;;;;;;4.67;3.43;;;;;;;-0.25;51.05;98968.56;5007965;28;20252;-69
2021/03/20 09:21:51;;;;;;;3.30;3.10;;;;;;;-0.44;50.77;98977.25;5005218;28;20364;-69
2021/03/20 09:24:20;;;;;;;3.90;3.60;;;;;;;-0.73;50.43;98979.41;5008825;28;20606;-72
2021/03/20 09:26:50;;;;;;;5.57;4.10;;;;;;;-0.76;50.99;98983.00;5004022;28;20224;-70
2021/03/20 09:29:20;;;;;;;3.93;3.63;;;;;;;-0.57;51.25;98987.38;5007100;28;20204;-70
2021/03/20 09:32:12;;;;;;;9.50;8.33;;;;;;;-0.78;50.26;98978.75;5002726;28;20725;-72
2021/03/20 09:34:43;;;;;;;4.90;4.27;;;;;;;-0.43;50.70;98973.72;4996954;28;20693;-71
2021/03/20 09:37:57;;;;;;;8.27;7.57;;;;;;;-0.81;50.18;98973.69;5003578;28;20220;-71
2021/03/20 09:40:56;;;;;;;6.27;4.80;;;;;;;-0.91;52.77;98974.09;5012299;28;20668;-72
2021/03/20 09:43:47;;;;;;;4.80;4.40;;;;;;;-0.68;51.65;98974.81;5005180;28;20585;-71
2021/03/20 09:46:44;;;;;;;3.30;3.10;;;;;;;-0.41;49.63;98963.22;5000083;28;20216;-70
2021/03/20 09:49:42;;;;;;;3.17;2.77;;;;;;;-0.33;48.59;98974.16;5001892;28;20205;-71
2021/03/20 09:52:09;;;;;;;5.47;4.60;;;;;;;-0.37;47.37;98970.00;5000463;28;20778;-70
2021/03/20 09:54:43;;;;;;;4.70;3.67;;;;;;;-0.40;47.73;98963.16;5005543;28;20228;-71
2021/03/20 09:57:42;;;;;;;4.37;3.97;;;;;;;-0.16;48.44;98970.75;5002022;28;20695;-73
2021/03/20 10:00:14;;;;;;;11.03;7.87;;;;;;;-0.42;48.48;98977.16;5006625;28;20574;-70
2021/03/20 10:02:53;;;;;;;3.37;3.17;;;;;;;-0.17;48.10;98971.69;5010300;28;20294;-69
2021/03/20 10:05:28;;;;;;;4.50;4.10;;;;;;;-0.15;47.77;98977.66;5004427;28;20255;-73
2021/03/20 10:08:00;;;;;;;7.43;6.53;;;;;;;-0.28;47.17;98986.94;5007134;28;20209;-73
2021/03/20 10:10:46;;;;;;;4.57;4.03;;;;;;;-0.10;48.45;98986.09;5003913;28;20212;-70
2021/03/20 10:13:24;;;;;;;5.97;3.40;;;;;;;-0.05;46.15;98989.34;5005440;28;20212;-71
2021/03/20 10:16:03;;;;;;;3.07;2.87;;;;;;;0.25;48.02;98980.97;5008136;28;20448;-70
2021/03/20 10:18:56;;;;;;;3.93;3.50;;;;;;;0.43;45.66;98976.63;5007691;28;20228;-70
2021/03/20 10:21:25;;;;;;;7.00;4.90;;;;;;;0.14;45.88;98972.81;5008803;28;20216;-72
2021/03/20 10:23:59;;;;;;;4.33;3.83;;;;;;;-0.01;46.93;98977.84;5004882;28;20260;-70
2021/03/20 10:26:30;;;;;;;13.97;9.13;;;;;;;0.09;48.21;98980.00;5001480;28;20208;-72
2021/03/20 10:29:00;;;;;;;3.50;3.20;;;;;;;0.54;46.96;98970.84;5002781;28;20216;-71
2021/03/20 10:31:29;;;;;;;4.20;3.13;;;;;;;0.62;46.18;98982.69;5002617;28;20316;-73
2021/03/20 10:34:07;;;;;;;8.57;7.63;;;;;;;0.46;45.69;98995.66;5004215;28;20231;-69
2021/03/20 10:36:37;;;;;;;3.67;3.30;;;;;;;0.80;45.12;98981.75;5008736;28;20608;-69
2021/03/20 10:39:25;;;;;;;4.43;3.53;;;;;;;0.92;46.25;98990.72;5007347;28;20556;-71
2021/03/20 10:41:56;;;;;;;5.33;4.87;;;;;;;0.77;45.78;98984.53;5004617;28;20204;-69
2021/03/20 10:44:25;;;;;;;3.90;3.70;;;;;;;0.52;46.46;98990.94;5003084;28;20484;-69
2021/03/20 10:47:02;;;;;;;4.50;4.10;;;;;;;0.21;47.45;98995.09;5003097;28;20426;-69
2021/03/20 10:49:34;;;;;;;6.90;5.63;;;;;;;0.36;45.94;98992.63;4997121;28;20657;-69
2021/03/20 10:52:01;;;;;;;4.63;4.07;;;;;;;0.52;44.66;98982.31;4998938;28;20212;-69
2021/03/20 10:54:32;;;;;;;5.37;3.97;;;;;;;0.90;44.62;98982.13;5000317;28;20226;-71
2021/03/20 10:57:06;;;;;;;4.17;3.87;;;;;;;0.69;44.79;98978.84;5003044;28;20209;-71
2021/03/20 10:59:35;;;;;;;4.53;4.13;;;;;;;0.82;43.99;98968.66;4999496;28;20404;-68
2021/03/20 11:02:23;;;;;;;5.67;4.97;;;;;;;0.80;42.81;98971.31;4998893;28;20217;-69
2021/03/20 11:04:52;;;;;;;4.07;3.77;;;;;;;1.17;43.72;98967.72;4999874;28;20244;-69
2021/03/20 11:07:21;;;;;;;9.37;7.93;;;;;;;1.27;42.78;98966.31;5000306;28;20589;-70
2021/03/20 11:09:47;;;;;;;7.33;6.40;;;;;;;1.16;43.20;98964.28;5001594;28;20212;-69
2021/03/20 11:12:19;;;;;;;4.33;3.93;;;;;;;0.98;43.22;98959.09;5001690;28;20593;-68
2021/03/20 11:14:52;;;;;;;6.60;3.83;;;;;;;1.00;43.30;98959.03;5004547;28;20746;-69
2021/03/20 11:17:23;;;;;;;4.30;3.90;;;;;;;0.88;42.77;98962.25;5000404;28;20213;-69
2021/03/20 11:19:59;;;;;;;3.40;3.10;;;;;;;0.92;42.33;98959.41;5001970;28;20220;-68
2021/03/20 11:22:36;;;;;;;3.23;3.03;;;;;;;1.23;41.27;98957.81;5000845;28;20281;-70
2021/03/20 11:25:07;;;;;;;3.60;3.37;;;;;;;0.65;41.84;98953.84;5000188;28;20801;-71
2021/03/20 11:27:36;;;;;;;4.30;3.90;;;;;;;1.13;42.43;98954.84;5007392;28;20205;-69
2021/03/20 11:30:08;;;;;;;7.50;7.03;;;;;;;1.77;40.24;98950.63;5009512;28;20213;-70
2021/03/20 11:32:39;;;;;;;4.03;3.73;;;;;;;1.86;40.81;98955.34;5006745;28;20212;-69
2021/03/20 11:35:12;;;;;;;4.40;3.63;;;;;;;2.21;40.48;98955.13;5005259;28;20228;-70
2021/03/20 11:37:39;;;;;;;3.50;3.20;;;;;;;2.53;38.34;98952.44;5001649;28;20220;-68
2021/03/20 11:40:09;;;;;;;4.97;4.67;;;;;;;2.55;38.15;98957.56;5005197;28;20209;-68
2021/03/20 11:42:38;;;;;;;2.97;2.80;;;;;;;2.55;38.89;98941.88;5016573;28;20211;-69
2021/03/20 11:45:10;;;;;;;3.20;3.00;;;;;;;2.99;36.61;98948.84;5006170;28;20224;-69
2021/03/20 11:47:38;;;;;;;3.43;3.17;;;;;;;1.96;38.79;98951.28;5015798;28;20216;-69
2021/03/20 11:50:16;;;;;;;3.37;3.07;;;;;;;1.82;40.22;98938.16;5005220;28;20295;-70
2021/03/20 11:52:49;;;;;;;4.73;3.90;;;;;;;2.57;39.09;98945.25;5006371;28;20304;-70
2021/03/20 11:55:20;;;;;;;4.13;3.83;;;;;;;2.27;39.58;98935.63;5009687;28;20219;-70
2021/03/20 11:57:47;;;;;;;3.67;3.37;;;;;;;2.30;38.77;98933.69;5006443;28;20235;-70
2021/03/20 12:00:36;;;;;;;8.40;3.03;;;;;;;2.02;41.01;98942.25;5010283;28;20592;-70
2021/03/20 12:03:12;;;;;;;4.07;3.77;;;;;;;2.08;40.23;98927.97;5009821;28;20229;-69
2021/03/20 12:05:40;;;;;;;5.33;3.37;;;;;;;1.83;40.00;98924.97;5005115;28;20252;-69